createdAt,value
2019-01-11T00:00:17.544Z,22.01
2019-01-11T00:00:50.006Z,22.04
2019-01-11T00:01:21.602Z,22.10
2019-01-11T00:01:53.184Z,22.14
2019-01-11T00:02:24.777Z,22.16
2019-01-11T00:02:56.392Z,22.18
2019-01-11T00:03:27.998Z,22.18
2019-01-11T00:03:59.594Z,22.19
2019-01-11T00:04:31.190Z,22.21
2019-01-11T00:05:02.829Z,22.20
2019-01-11T00:05:34.421Z,22.24
2019-01-11T00:06:06.017Z,22.26
2019-01-11T00:06:37.622Z,22.27
2019-01-11T00:07:09.228Z,22.27
2019-01-11T00:07:40.836Z,22.26
2019-01-11T00:08:12.454Z,22.28
2019-01-11T00:08:44.063Z,22.32
2019-01-11T00:09:15.661Z,22.34
2019-01-11T00:09:47.263Z,22.34
2019-01-11T00:10:18.863Z,22.26
2019-01-11T00:10:50.449Z,22.35
2019-01-11T00:11:22.041Z,22.37
2019-01-11T00:11:53.643Z,22.40
2019-01-11T00:12:25.234Z,22.43
2019-01-11T00:12:56.854Z,22.45
2019-01-11T00:13:28.446Z,22.55
2019-01-11T00:14:00.040Z,22.58
2019-01-11T00:14:31.652Z,22.54
2019-01-11T00:15:03.260Z,21.99
2019-01-11T00:15:34.863Z,20.55
2019-01-11T00:16:06.457Z,19.11
2019-01-11T00:16:38.064Z,18.15
2019-01-11T00:17:09.662Z,17.40
2019-01-11T00:17:41.254Z,16.79
2019-01-11T00:18:12.888Z,16.46
2019-01-11T00:18:44.504Z,16.52
2019-01-11T00:19:16.108Z,17.06
2019-01-11T00:19:47.716Z,17.71
2019-01-11T00:20:19.319Z,18.29
2019-01-11T00:20:50.903Z,18.83
2019-01-11T00:21:22.503Z,19.22
2019-01-11T00:21:54.095Z,19.58
2019-01-11T00:22:25.690Z,19.84
2019-01-11T00:22:57.321Z,20.08
2019-01-11T00:23:28.925Z,20.26
2019-01-11T00:24:00.556Z,20.42
2019-01-11T00:24:32.150Z,20.55
2019-01-11T00:25:03.741Z,20.64
2019-01-11T00:25:35.344Z,20.73
2019-01-11T00:26:07.083Z,20.81
2019-01-11T00:26:38.687Z,20.86
2019-01-11T00:27:10.340Z,20.91
2019-01-11T00:27:41.937Z,20.95
2019-01-11T00:28:13.565Z,20.98
2019-01-11T00:28:45.167Z,20.78
2019-01-11T00:29:16.777Z,21.03
2019-01-11T00:29:48.397Z,21.07
2019-01-11T00:30:19.999Z,21.07
2019-01-11T00:30:51.595Z,21.08
2019-01-11T00:31:23.186Z,21.09
2019-01-11T00:31:54.778Z,21.10
2019-01-11T00:32:26.355Z,21.12
2019-01-11T00:32:57.946Z,21.12
2019-01-11T00:33:29.565Z,21.14
2019-01-11T00:34:01.172Z,21.14
2019-01-11T00:34:32.782Z,21.15
2019-01-11T00:35:04.388Z,21.15
2019-01-11T00:35:35.971Z,21.16
2019-01-11T00:36:07.563Z,21.16
2019-01-11T00:36:39.181Z,21.04
2019-01-11T00:37:10.778Z,21.16
2019-01-11T00:37:42.352Z,21.17
2019-01-11T00:38:13.969Z,21.17
2019-01-11T00:38:45.559Z,21.18
2019-01-11T00:39:17.155Z,21.18
2019-01-11T00:39:48.749Z,21.19
2019-01-11T00:40:20.362Z,21.20
2019-01-11T00:40:51.967Z,21.21
2019-01-11T00:41:23.572Z,21.21
2019-01-11T00:41:55.169Z,21.20
2019-01-11T00:42:26.776Z,21.20
2019-01-11T00:42:58.360Z,21.21
2019-01-11T00:43:29.940Z,21.21
2019-01-11T00:44:01.547Z,21.21
2019-01-11T00:44:33.142Z,21.21
2019-01-11T00:45:04.734Z,21.21
2019-01-11T00:45:36.316Z,21.22
2019-01-11T00:46:07.927Z,21.21
2019-01-11T00:46:39.516Z,21.20
2019-01-11T00:47:11.113Z,21.20
2019-01-11T00:47:42.701Z,21.18
2019-01-11T00:48:14.319Z,21.18
2019-01-11T00:48:45.910Z,21.18
2019-01-11T00:49:17.506Z,21.18
2019-01-11T00:49:49.131Z,21.17
2019-01-11T00:50:20.711Z,21.14
2019-01-11T00:50:52.313Z,21.15
2019-01-11T00:51:23.910Z,21.14
2019-01-11T00:51:55.502Z,20.93
2019-01-11T00:52:27.108Z,21.14
2019-01-11T00:52:58.712Z,21.13
2019-01-11T00:53:30.306Z,21.15
2019-01-11T00:54:01.888Z,21.16
2019-01-11T00:54:33.481Z,21.15
2019-01-11T00:55:06.024Z,21.13
2019-01-11T00:55:36.721Z,21.12
2019-01-11T00:56:08.313Z,21.12
2019-01-11T00:56:39.904Z,21.12
2019-01-11T00:57:11.498Z,21.11
2019-01-11T00:57:43.112Z,21.12
2019-01-11T00:58:14.720Z,21.12
2019-01-11T00:58:46.341Z,21.12
2019-01-11T00:59:17.948Z,21.12
2019-01-11T00:59:49.541Z,21.13
2019-01-11T01:00:21.139Z,21.12
2019-01-11T01:00:52.736Z,21.12
2019-01-11T01:01:24.407Z,21.11
2019-01-11T01:01:55.987Z,21.13
2019-01-11T01:02:27.586Z,21.13
2019-01-11T01:02:59.178Z,21.13
2019-01-11T01:03:30.798Z,21.13
2019-01-11T01:04:02.404Z,21.13
2019-01-11T01:04:34.012Z,21.13
2019-01-11T01:05:05.628Z,21.14
2019-01-11T01:05:37.239Z,21.14
2019-01-11T01:06:08.833Z,21.14
2019-01-11T01:06:40.432Z,21.13
2019-01-11T01:07:12.025Z,21.12
2019-01-11T01:07:43.613Z,21.14
2019-01-11T01:08:15.206Z,21.12
2019-01-11T01:08:46.826Z,21.11
2019-01-11T01:09:18.418Z,21.12
2019-01-11T01:09:50.028Z,21.12
2019-01-11T01:10:21.623Z,21.11
2019-01-11T01:10:53.219Z,21.11
2019-01-11T01:11:24.813Z,21.11
2019-01-11T01:11:56.409Z,21.10
2019-01-11T01:12:28.011Z,21.09
2019-01-11T01:12:59.606Z,21.08
2019-01-11T01:13:31.203Z,21.07
2019-01-11T01:14:02.822Z,21.06
2019-01-11T01:14:34.432Z,21.05
2019-01-11T01:15:06.030Z,21.06
2019-01-11T01:15:37.616Z,21.06
2019-01-11T01:16:09.217Z,21.05
2019-01-11T01:16:40.819Z,21.05
2019-01-11T01:17:12.428Z,21.04
2019-01-11T01:17:44.044Z,21.04
2019-01-11T01:18:15.634Z,21.06
2019-01-11T01:18:47.249Z,21.05
2019-01-11T01:19:20.069Z,21.04
2019-01-11T01:19:50.502Z,21.04
2019-01-11T01:20:22.083Z,21.05
2019-01-11T01:20:53.673Z,21.05
2019-01-11T01:21:25.265Z,21.06
2019-01-11T01:21:56.867Z,21.06
2019-01-11T01:22:28.473Z,21.06
2019-01-11T01:23:00.076Z,21.05
2019-01-11T01:23:31.670Z,21.05
2019-01-11T01:24:03.296Z,21.05
2019-01-11T01:24:34.905Z,21.05
2019-01-11T01:25:06.502Z,21.04
2019-01-11T01:25:38.084Z,21.05
2019-01-11T01:26:09.695Z,21.07
2019-01-11T01:26:41.290Z,21.07
2019-01-11T01:27:12.883Z,21.08
2019-01-11T01:27:44.488Z,21.07
2019-01-11T01:28:16.096Z,21.06
2019-01-11T01:28:47.724Z,21.07
2019-01-11T01:29:19.356Z,21.07
2019-01-11T01:29:50.940Z,21.08
2019-01-11T01:30:22.548Z,21.08
2019-01-11T01:30:54.145Z,21.08
2019-01-11T01:31:25.728Z,21.10
2019-01-11T01:31:57.308Z,21.07
2019-01-11T01:32:28.915Z,21.08
2019-01-11T01:33:00.509Z,21.07
2019-01-11T01:33:32.117Z,21.06
2019-01-11T01:34:03.739Z,21.06
2019-01-11T01:34:35.348Z,21.07
2019-01-11T01:35:06.945Z,21.08
2019-01-11T01:35:38.538Z,20.87
2019-01-11T01:36:10.134Z,21.08
2019-01-11T01:36:41.752Z,21.08
2019-01-11T01:37:13.359Z,21.07
2019-01-11T01:37:44.953Z,21.06
2019-01-11T01:38:16.556Z,21.06
2019-01-11T01:38:48.152Z,21.07
2019-01-11T01:39:19.771Z,21.08
2019-01-11T01:39:51.366Z,21.07
2019-01-11T01:40:22.996Z,21.08
2019-01-11T01:40:54.603Z,21.07
2019-01-11T01:41:26.188Z,21.07
2019-01-11T01:41:57.782Z,21.07
2019-01-11T01:42:29.392Z,21.07
2019-01-11T01:43:01.064Z,21.07
2019-01-11T01:43:32.653Z,21.06
2019-01-11T01:44:04.288Z,21.04
2019-01-11T01:44:35.880Z,21.04
2019-01-11T01:45:07.474Z,21.03
2019-01-11T01:45:39.065Z,21.02
2019-01-11T01:46:10.662Z,21.01
2019-01-11T01:46:42.258Z,21.01
2019-01-11T01:47:13.864Z,21.01
2019-01-11T01:47:45.476Z,21.00
2019-01-11T01:48:17.079Z,21.01
2019-01-11T01:48:48.693Z,21.01
2019-01-11T01:49:26.385Z,21.03
2019-01-11T01:49:51.947Z,21.03
2019-01-11T01:50:23.553Z,21.01
2019-01-11T01:50:55.145Z,21.01
2019-01-11T01:51:26.738Z,20.99
2019-01-11T01:51:58.320Z,20.99
2019-01-11T01:52:29.913Z,20.99
2019-01-11T01:53:01.520Z,21.00
2019-01-11T01:53:33.131Z,21.01
2019-01-11T01:54:04.749Z,21.01
2019-01-11T01:54:36.365Z,21.03
2019-01-11T01:55:07.972Z,21.03
2019-01-11T01:55:39.567Z,21.03
2019-01-11T01:56:11.167Z,21.03
2019-01-11T01:56:42.768Z,21.01
2019-01-11T01:57:14.366Z,21.03
2019-01-11T01:57:45.956Z,21.03
2019-01-11T01:58:17.549Z,21.03
2019-01-11T01:58:49.160Z,21.03
2019-01-11T01:59:20.791Z,21.03
2019-01-11T01:59:52.412Z,21.03
2019-01-11T02:00:24.015Z,21.02
2019-01-11T02:00:55.620Z,21.03
2019-01-11T02:01:27.227Z,21.03
2019-01-11T02:01:58.843Z,21.02
2019-01-11T02:02:30.440Z,21.02
2019-01-11T02:03:02.033Z,21.03
2019-01-11T02:03:33.635Z,21.04
2019-01-11T02:04:05.229Z,21.06
2019-01-11T02:04:36.850Z,21.08
2019-01-11T02:05:08.455Z,21.09
2019-01-11T02:05:40.050Z,21.10
2019-01-11T02:06:11.636Z,21.11
2019-01-11T02:06:43.234Z,21.11
2019-01-11T02:07:14.848Z,21.14
2019-01-11T02:07:46.439Z,21.17
2019-01-11T02:08:18.033Z,21.13
2019-01-11T02:08:49.630Z,21.09
2019-01-11T02:09:21.261Z,21.03
2019-01-11T02:09:52.860Z,20.96
2019-01-11T02:10:24.464Z,20.95
2019-01-11T02:10:56.076Z,20.96
2019-01-11T02:11:27.673Z,20.99
2019-01-11T02:11:59.273Z,21.01
2019-01-11T02:12:30.856Z,21.02
2019-01-11T02:13:02.456Z,21.05
2019-01-11T02:13:34.039Z,21.07
2019-01-11T02:14:05.631Z,21.08
2019-01-11T02:14:37.259Z,21.09
2019-01-11T02:15:08.867Z,21.09
2019-01-11T02:15:40.457Z,21.10
2019-01-11T02:16:12.050Z,21.11
2019-01-11T02:16:43.659Z,21.11
2019-01-11T02:17:15.254Z,21.11
2019-01-11T02:17:46.846Z,21.12
2019-01-11T02:18:18.446Z,21.14
2019-01-11T02:18:50.042Z,21.13
2019-01-11T02:19:21.656Z,21.13
2019-01-11T02:19:53.291Z,21.13
2019-01-11T02:20:24.898Z,21.14
2019-01-11T02:20:56.489Z,21.14
2019-01-11T02:21:28.082Z,21.14
2019-01-11T02:21:59.665Z,21.13
2019-01-11T02:22:31.259Z,21.11
2019-01-11T02:23:02.846Z,21.11
2019-01-11T02:23:34.437Z,21.10
2019-01-11T02:24:06.019Z,21.11
2019-01-11T02:24:37.648Z,21.09
2019-01-11T02:25:09.241Z,21.12
2019-01-11T02:25:46.163Z,21.12
2019-01-11T02:26:12.512Z,21.12
2019-01-11T02:26:44.106Z,21.12
2019-01-11T02:27:15.701Z,21.11
2019-01-11T02:27:47.307Z,21.11
2019-01-11T02:28:18.950Z,21.10
2019-01-11T02:28:50.556Z,21.08
2019-01-11T02:29:22.163Z,21.07
2019-01-11T02:29:53.783Z,21.04
2019-01-11T02:30:25.368Z,21.05
2019-01-11T02:30:56.962Z,21.07
2019-01-11T02:31:28.553Z,21.06
2019-01-11T02:32:00.156Z,21.06
2019-01-11T02:32:31.739Z,21.04
2019-01-11T02:33:03.335Z,21.05
2019-01-11T02:33:34.949Z,21.06
2019-01-11T02:34:06.546Z,21.06
2019-01-11T02:34:38.165Z,21.06
2019-01-11T02:35:09.768Z,21.06
2019-01-11T02:35:41.362Z,21.07
2019-01-11T02:36:12.954Z,21.08
2019-01-11T02:36:44.556Z,21.10
2019-01-11T02:37:16.150Z,21.11
2019-01-11T02:37:47.741Z,21.10
2019-01-11T02:38:19.348Z,21.12
2019-01-11T02:38:50.951Z,21.11
2019-01-11T02:39:22.536Z,21.14
2019-01-11T02:39:54.145Z,21.17
2019-01-11T02:40:25.751Z,21.18
2019-01-11T02:40:57.347Z,21.20
2019-01-11T02:41:28.952Z,21.21
2019-01-11T02:42:00.571Z,21.25
2019-01-11T02:42:32.187Z,21.27
2019-01-11T02:43:03.777Z,21.25
2019-01-11T02:43:35.384Z,21.31
2019-01-11T02:44:06.982Z,21.32
2019-01-11T02:44:38.579Z,21.33
2019-01-11T02:45:10.212Z,21.33
2019-01-11T02:45:41.818Z,21.35
2019-01-11T02:46:13.410Z,21.16
2019-01-11T02:46:45.011Z,21.41
2019-01-11T02:47:16.627Z,21.43
2019-01-11T02:47:48.232Z,21.44
2019-01-11T02:48:19.816Z,21.46
2019-01-11T02:48:51.497Z,21.48
2019-01-11T02:49:23.104Z,21.49
2019-01-11T02:49:55.114Z,21.49
2019-01-11T02:50:26.407Z,21.50
2019-01-11T02:50:58.007Z,21.51
2019-01-11T02:51:29.607Z,21.53
2019-01-11T02:52:01.188Z,21.56
2019-01-11T02:52:32.793Z,21.58
2019-01-11T02:53:04.390Z,21.61
2019-01-11T02:53:35.998Z,21.63
2019-01-11T02:54:07.594Z,21.64
2019-01-11T02:54:39.204Z,21.67
2019-01-11T02:55:10.837Z,21.68
2019-01-11T02:55:42.416Z,21.68
2019-01-11T02:56:14.007Z,21.69
2019-01-11T02:56:45.603Z,21.68
2019-01-11T02:57:17.212Z,21.68
2019-01-11T02:57:48.822Z,21.68
2019-01-11T02:58:20.413Z,21.68
2019-01-11T02:58:52.017Z,21.68
2019-01-11T02:59:23.600Z,21.68
2019-01-11T02:59:55.208Z,21.68
2019-01-11T03:00:26.817Z,21.67
2019-01-11T03:00:58.402Z,21.69
2019-01-11T03:01:29.999Z,21.70
2019-01-11T03:02:01.602Z,21.71
2019-01-11T03:02:33.201Z,21.72
2019-01-11T03:03:04.797Z,21.71
2019-01-11T03:03:36.379Z,21.61
2019-01-11T03:04:07.974Z,21.74
2019-01-11T03:04:39.569Z,21.76
2019-01-11T03:05:11.191Z,21.78
2019-01-11T03:05:42.789Z,21.79
2019-01-11T03:06:14.389Z,21.80
2019-01-11T03:06:45.982Z,21.80
2019-01-11T03:07:17.588Z,21.81
2019-01-11T03:07:49.196Z,21.83
2019-01-11T03:08:20.789Z,21.84
2019-01-11T03:08:52.391Z,21.86
2019-01-11T03:09:23.985Z,21.88
2019-01-11T03:09:55.587Z,21.89
2019-01-11T03:10:27.246Z,21.89
2019-01-11T03:10:58.829Z,21.88
2019-01-11T03:11:30.424Z,21.90
2019-01-11T03:12:02.019Z,21.92
2019-01-11T03:12:33.599Z,21.94
2019-01-11T03:13:05.214Z,21.95
2019-01-11T03:13:36.802Z,21.96
2019-01-11T03:14:08.398Z,21.96
2019-01-11T03:14:40.008Z,21.95
2019-01-11T03:15:11.645Z,21.98
2019-01-11T03:15:43.232Z,22.00
2019-01-11T03:16:14.826Z,22.02
2019-01-11T03:16:46.437Z,22.02
2019-01-11T03:17:18.048Z,22.01
2019-01-11T03:17:49.653Z,22.03
2019-01-11T03:18:21.268Z,22.03
2019-01-11T03:18:52.867Z,22.03
2019-01-11T03:19:24.470Z,22.02
2019-01-11T03:19:56.068Z,22.01
2019-01-11T03:20:27.702Z,22.00
2019-01-11T03:20:59.308Z,22.00
2019-01-11T03:21:30.916Z,21.99
2019-01-11T03:22:02.633Z,21.98
2019-01-11T03:22:34.217Z,21.97
2019-01-11T03:23:05.822Z,21.97
2019-01-11T03:23:37.443Z,21.97
2019-01-11T03:24:09.038Z,21.96
2019-01-11T03:24:40.622Z,21.96
2019-01-11T03:25:12.211Z,21.95
2019-01-11T03:25:43.802Z,21.95
2019-01-11T03:26:15.384Z,21.97
2019-01-11T03:26:46.992Z,21.97
2019-01-11T03:27:18.604Z,21.96
2019-01-11T03:27:50.216Z,21.96
2019-01-11T03:28:21.801Z,21.95
2019-01-11T03:28:53.394Z,21.95
2019-01-11T03:29:24.979Z,21.93
2019-01-11T03:29:56.580Z,21.94
2019-01-11T03:30:28.188Z,21.95
2019-01-11T03:30:59.786Z,21.95
2019-01-11T03:31:31.393Z,21.95
2019-01-11T03:32:03.000Z,21.94
2019-01-11T03:32:34.600Z,21.93
2019-01-11T03:33:06.195Z,21.93
2019-01-11T03:33:37.804Z,21.92
2019-01-11T03:34:09.398Z,21.89
2019-01-11T03:34:40.989Z,21.86
2019-01-11T03:35:15.529Z,21.83
2019-01-11T03:35:47.135Z,21.85
2019-01-11T03:36:18.744Z,21.84
2019-01-11T03:36:50.335Z,21.85
2019-01-11T03:37:21.925Z,21.85
2019-01-11T03:37:53.508Z,21.83
2019-01-11T03:38:25.118Z,21.80
2019-01-11T03:38:56.700Z,21.79
2019-01-11T03:39:28.284Z,21.77
2019-01-11T03:39:59.878Z,21.76
2019-01-11T03:40:31.502Z,21.75
2019-01-11T03:41:03.142Z,21.51
2019-01-11T03:41:34.733Z,21.71
2019-01-11T03:42:06.341Z,21.69
2019-01-11T03:42:37.953Z,21.67
2019-01-11T03:43:09.560Z,21.65
2019-01-11T03:43:41.168Z,21.64
2019-01-11T03:44:12.765Z,21.64
2019-01-11T03:44:44.371Z,21.63
2019-01-11T03:45:15.966Z,21.63
2019-01-11T03:45:47.604Z,21.62
2019-01-11T03:46:19.199Z,21.60
2019-01-11T03:46:50.799Z,21.59
2019-01-11T03:47:22.399Z,21.58
2019-01-11T03:47:53.985Z,21.57
2019-01-11T03:48:25.582Z,21.54
2019-01-11T03:48:57.190Z,21.51
2019-01-11T03:49:28.789Z,21.48
2019-01-11T03:50:00.372Z,21.47
2019-01-11T03:50:31.980Z,21.46
2019-01-11T03:51:03.594Z,21.44
2019-01-11T03:51:35.195Z,21.43
2019-01-11T03:52:06.832Z,21.43
2019-01-11T03:52:38.426Z,21.41
2019-01-11T03:53:10.019Z,21.42
2019-01-11T03:53:41.619Z,21.44
2019-01-11T03:54:13.216Z,21.43
2019-01-11T03:54:44.815Z,21.43
2019-01-11T03:55:16.395Z,21.41
2019-01-11T03:55:48.005Z,21.39
2019-01-11T03:56:19.616Z,21.38
2019-01-11T03:56:51.269Z,21.36
2019-01-11T03:57:22.872Z,21.36
2019-01-11T03:57:54.465Z,21.36
2019-01-11T03:58:26.075Z,21.36
2019-01-11T03:58:57.689Z,21.34
2019-01-11T03:59:29.279Z,21.34
2019-01-11T04:00:00.884Z,21.35
2019-01-11T04:00:33.363Z,21.33
2019-01-11T04:01:04.975Z,21.32
2019-01-11T04:01:36.556Z,21.32
2019-01-11T04:02:08.844Z,21.32
2019-01-11T04:02:40.437Z,21.30
2019-01-11T04:03:12.029Z,21.29
2019-01-11T04:03:43.636Z,21.27
2019-01-11T04:04:15.233Z,21.24
2019-01-11T04:04:46.840Z,21.25
2019-01-11T04:05:18.438Z,21.24
2019-01-11T04:05:50.078Z,21.24
2019-01-11T04:06:21.679Z,21.03
2019-01-11T04:06:53.260Z,21.12
2019-01-11T04:07:24.853Z,21.16
2019-01-11T04:07:56.456Z,21.26
2019-01-11T04:08:28.061Z,21.28
2019-01-11T04:08:59.668Z,21.29
2019-01-11T04:09:31.261Z,21.30
2019-01-11T04:10:02.853Z,21.31
2019-01-11T04:10:34.464Z,21.30
2019-01-11T04:11:06.093Z,21.31
2019-01-11T04:11:37.681Z,21.31
2019-01-11T04:12:09.293Z,21.33
2019-01-11T04:12:40.899Z,21.34
2019-01-11T04:13:12.497Z,21.36
2019-01-11T04:13:44.080Z,21.37
2019-01-11T04:14:15.679Z,21.39
2019-01-11T04:14:47.285Z,21.42
2019-01-11T04:15:18.886Z,21.45
2019-01-11T04:15:50.491Z,21.48
2019-01-11T04:16:22.162Z,21.49
2019-01-11T04:16:53.763Z,21.50
2019-01-11T04:17:25.358Z,21.55
2019-01-11T04:18:01.506Z,21.39
2019-01-11T04:18:33.097Z,21.60
2019-01-11T04:19:04.685Z,21.64
2019-01-11T04:19:36.293Z,21.66
2019-01-11T04:20:07.886Z,21.67
2019-01-11T04:20:39.477Z,21.70
2019-01-11T04:21:11.103Z,21.71
2019-01-11T04:21:42.693Z,21.70
2019-01-11T04:22:14.303Z,21.71
2019-01-11T04:22:46.489Z,21.72
2019-01-11T04:23:18.081Z,21.74
2019-01-11T04:23:49.664Z,21.76
2019-01-11T04:24:21.264Z,21.67
2019-01-11T04:25:07.633Z,21.98
2019-01-11T04:25:39.285Z,21.89
2019-01-11T04:26:10.896Z,21.78
2019-01-11T04:26:42.494Z,21.70
2019-01-11T04:27:14.090Z,21.41
2019-01-11T04:27:45.681Z,21.61
2019-01-11T04:28:17.275Z,21.60
2019-01-11T04:28:48.882Z,21.62
2019-01-11T04:29:20.488Z,21.64
2019-01-11T04:29:52.089Z,21.44
2019-01-11T04:30:23.692Z,21.69
2019-01-11T04:30:55.301Z,21.70
2019-01-11T04:31:26.923Z,21.71
2019-01-11T04:31:58.514Z,21.69
2019-01-11T04:32:30.111Z,21.70
2019-01-11T04:33:01.713Z,21.71
2019-01-11T04:33:33.310Z,21.72
2019-01-11T04:34:04.907Z,21.75
2019-01-11T04:34:36.517Z,21.77
2019-01-11T04:35:08.111Z,21.76
2019-01-11T04:35:39.720Z,21.81
2019-01-11T04:36:11.343Z,21.82
2019-01-11T04:36:42.976Z,21.81
2019-01-11T04:37:14.574Z,21.81
2019-01-11T04:37:46.165Z,21.80
2019-01-11T04:38:17.763Z,21.80
2019-01-11T04:38:49.366Z,21.79
2019-01-11T04:39:20.997Z,21.79
2019-01-11T04:39:52.582Z,21.79
2019-01-11T04:40:24.189Z,21.81
2019-01-11T04:40:55.800Z,21.83
2019-01-11T04:41:27.407Z,21.83
2019-01-11T04:41:58.998Z,21.84
2019-01-11T04:42:30.605Z,21.83
2019-01-11T04:43:02.211Z,21.84
2019-01-11T04:43:33.801Z,21.84
2019-01-11T04:44:05.399Z,21.85
2019-01-11T04:44:36.998Z,21.85
2019-01-11T04:45:08.602Z,21.84
2019-01-11T04:45:40.209Z,21.86
2019-01-11T04:46:11.806Z,21.84
2019-01-11T04:46:43.448Z,21.84
2019-01-11T04:47:15.585Z,21.84
2019-01-11T04:47:46.729Z,21.85
2019-01-11T04:48:18.331Z,21.85
2019-01-11T04:48:49.916Z,21.85
2019-01-11T04:49:21.509Z,21.84
2019-01-11T04:49:53.113Z,21.84
2019-01-11T04:50:24.718Z,21.84
2019-01-11T04:50:56.300Z,21.82
2019-01-11T04:51:27.914Z,21.84
2019-01-11T04:51:59.505Z,21.82
2019-01-11T04:52:31.098Z,21.83
2019-01-11T04:53:02.683Z,21.83
2019-01-11T04:53:34.276Z,21.81
2019-01-11T04:54:05.865Z,21.79
2019-01-11T04:54:37.466Z,21.76
2019-01-11T04:55:09.081Z,21.78
2019-01-11T04:55:40.682Z,21.77
2019-01-11T04:56:12.278Z,21.78
2019-01-11T04:56:43.889Z,21.79
2019-01-11T04:57:15.481Z,21.78
2019-01-11T04:57:47.089Z,21.79
2019-01-11T04:58:18.688Z,21.77
2019-01-11T04:58:50.282Z,21.75
2019-01-11T04:59:21.882Z,21.75
2019-01-11T04:59:53.483Z,21.75
2019-01-11T05:00:25.078Z,21.73
2019-01-11T05:00:56.679Z,21.72
2019-01-11T05:01:28.275Z,21.72
2019-01-11T05:01:59.895Z,21.70
2019-01-11T05:02:31.499Z,21.71
2019-01-11T05:03:03.105Z,21.69
2019-01-11T05:03:34.732Z,21.67
2019-01-11T05:04:06.330Z,21.68
2019-01-11T05:04:37.945Z,21.66
2019-01-11T05:05:09.550Z,21.66
2019-01-11T05:05:41.144Z,21.64
2019-01-11T05:06:12.723Z,21.62
2019-01-11T05:06:44.340Z,21.61
2019-01-11T05:07:15.941Z,21.61
2019-01-11T05:07:47.544Z,21.60
2019-01-11T05:08:19.134Z,21.59
2019-01-11T05:08:50.728Z,21.56
2019-01-11T05:09:22.319Z,21.55
2019-01-11T05:09:53.927Z,21.54
2019-01-11T05:10:25.539Z,21.53
2019-01-11T05:10:57.134Z,21.51
2019-01-11T05:11:28.721Z,21.49
2019-01-11T05:12:00.328Z,21.47
2019-01-11T05:12:31.922Z,21.45
2019-01-11T05:13:03.519Z,21.45
2019-01-11T05:13:36.067Z,21.44
2019-01-11T05:14:07.669Z,21.43
2019-01-11T05:14:39.269Z,21.40
2019-01-11T05:15:10.871Z,21.18
2019-01-11T05:15:42.485Z,21.38
2019-01-11T05:16:14.097Z,21.36
2019-01-11T05:16:45.717Z,21.33
2019-01-11T05:17:17.323Z,21.32
2019-01-11T05:17:48.927Z,21.29
2019-01-11T05:18:20.528Z,21.28
2019-01-11T05:18:52.139Z,21.25
2019-01-11T05:19:23.739Z,21.23
2019-01-11T05:19:55.353Z,21.21
2019-01-11T05:20:26.952Z,21.20
2019-01-11T05:20:58.535Z,21.17
2019-01-11T05:21:30.133Z,21.16
2019-01-11T05:22:01.764Z,21.13
2019-01-11T05:22:33.348Z,21.12
2019-01-11T05:23:04.952Z,21.11
2019-01-11T05:23:36.545Z,21.09
2019-01-11T05:24:08.147Z,21.09
2019-01-11T05:24:39.748Z,21.08
2019-01-11T05:25:11.364Z,21.07
2019-01-11T05:25:42.977Z,21.04
2019-01-11T05:26:14.583Z,21.05
2019-01-11T05:26:46.181Z,21.04
2019-01-11T05:27:17.812Z,21.04
2019-01-11T05:27:49.421Z,21.05
2019-01-11T05:28:21.075Z,21.05
2019-01-11T05:28:52.666Z,21.05
2019-01-11T05:29:24.248Z,21.04
2019-01-11T05:29:55.839Z,21.05
2019-01-11T05:30:27.447Z,21.03
2019-01-11T05:30:59.325Z,21.08
2019-01-11T05:31:30.923Z,21.08
2019-01-11T05:32:02.558Z,21.10
2019-01-11T05:32:34.148Z,21.12
2019-01-11T05:33:05.738Z,21.16
2019-01-11T05:33:37.330Z,21.17
2019-01-11T05:34:08.924Z,21.19
2019-01-11T05:34:40.518Z,21.20
2019-01-11T05:35:12.123Z,21.22
2019-01-11T05:35:43.730Z,21.24
2019-01-11T05:36:15.330Z,21.26
2019-01-11T05:36:46.927Z,21.28
2019-01-11T05:37:18.548Z,21.28
2019-01-11T05:37:50.154Z,21.29
2019-01-11T05:38:21.746Z,21.30
2019-01-11T05:38:53.337Z,21.32
2019-01-11T05:39:24.942Z,21.34
2019-01-11T05:39:56.543Z,21.35
2019-01-11T05:40:28.185Z,21.37
2019-01-11T05:40:59.789Z,21.39
2019-01-11T05:41:31.375Z,21.40
2019-01-11T05:42:03.006Z,21.42
2019-01-11T05:42:34.599Z,21.44
2019-01-11T05:43:06.182Z,21.46
2019-01-11T05:43:37.773Z,21.47
2019-01-11T05:44:09.379Z,21.48
2019-01-11T05:44:40.988Z,21.50
2019-01-11T05:45:12.590Z,21.52
2019-01-11T05:45:44.182Z,21.54
2019-01-11T05:46:15.797Z,21.54
2019-01-11T05:46:47.391Z,21.57
2019-01-11T05:47:19.028Z,21.59
2019-01-11T05:47:50.630Z,21.61
2019-01-11T05:48:22.230Z,21.63
2019-01-11T05:48:53.834Z,21.64
2019-01-11T05:49:25.462Z,21.65
2019-01-11T05:49:57.068Z,21.43
2019-01-11T05:50:28.655Z,21.68
2019-01-11T05:51:00.265Z,21.69
2019-01-11T05:51:31.879Z,21.70
2019-01-11T05:52:03.481Z,21.70
2019-01-11T05:52:35.098Z,21.72
2019-01-11T05:53:06.705Z,21.74
2019-01-11T05:53:38.349Z,21.76
2019-01-11T05:54:09.942Z,21.77
2019-01-11T05:54:42.529Z,21.78
2019-01-11T05:55:13.210Z,21.57
2019-01-11T05:55:44.812Z,21.80
2019-01-11T05:56:16.406Z,21.84
2019-01-11T05:56:48.013Z,21.85
2019-01-11T05:57:19.646Z,21.86
2019-01-11T05:58:09.040Z,21.88
2019-01-11T05:58:40.643Z,21.92
2019-01-11T05:59:12.242Z,21.93
2019-01-11T05:59:43.836Z,21.95
2019-01-11T06:00:15.444Z,21.97
2019-01-11T06:00:47.110Z,21.97
2019-01-11T06:01:18.716Z,21.99
2019-01-11T06:01:50.315Z,22.00
2019-01-11T06:02:21.934Z,22.01
2019-01-11T06:02:53.526Z,22.02
2019-01-11T06:03:25.131Z,22.02
2019-01-11T06:03:56.903Z,22.04
2019-01-11T06:04:33.884Z,22.02
2019-01-11T06:05:05.477Z,22.04
2019-01-11T06:05:37.064Z,22.05
2019-01-11T06:06:08.668Z,22.05
2019-01-11T06:06:55.147Z,22.04
2019-01-11T06:07:26.774Z,22.05
2019-01-11T06:07:58.394Z,22.06
2019-01-11T06:08:30.000Z,22.04
2019-01-11T06:09:01.599Z,22.09
2019-01-11T06:09:33.194Z,22.10
2019-01-11T06:10:04.789Z,22.10
2019-01-11T06:10:36.401Z,22.08
2019-01-11T06:11:07.994Z,22.07
2019-01-11T06:11:39.597Z,22.06
2019-01-11T06:12:11.177Z,22.05
2019-01-11T06:12:42.788Z,21.84
2019-01-11T06:13:14.395Z,22.04
2019-01-11T06:13:46.000Z,22.05
2019-01-11T06:14:17.606Z,22.06
2019-01-11T06:14:49.216Z,22.06
2019-01-11T06:15:20.813Z,22.05
2019-01-11T06:15:52.398Z,22.02
2019-01-11T06:16:23.990Z,22.04
2019-01-11T06:16:55.585Z,22.04
2019-01-11T06:17:27.177Z,22.03
2019-01-11T06:17:58.803Z,22.04
2019-01-11T06:18:30.388Z,22.03
2019-01-11T06:19:01.991Z,22.02
2019-01-11T06:19:33.599Z,22.02
2019-01-11T06:20:05.203Z,22.01
2019-01-11T06:20:36.811Z,21.99
2019-01-11T06:21:08.404Z,21.99
2019-01-11T06:21:40.007Z,21.98
2019-01-11T06:22:11.592Z,21.98
2019-01-11T06:22:43.240Z,21.97
2019-01-11T06:23:14.847Z,21.97
2019-01-11T06:23:46.452Z,21.95
2019-01-11T06:24:18.059Z,21.95
2019-01-11T06:24:49.653Z,21.95
2019-01-11T06:25:21.261Z,21.94
2019-01-11T06:25:52.861Z,21.94
2019-01-11T06:26:24.472Z,21.91
2019-01-11T06:26:56.083Z,21.90
2019-01-11T06:27:27.681Z,21.90
2019-01-11T06:27:59.303Z,21.91
2019-01-11T06:28:30.897Z,21.91
2019-01-11T06:29:02.511Z,21.90
2019-01-11T06:29:34.115Z,21.88
2019-01-11T06:30:05.711Z,21.86
2019-01-11T06:30:37.311Z,21.85
2019-01-11T06:31:08.914Z,21.82
2019-01-11T06:31:40.509Z,21.80
2019-01-11T06:32:12.355Z,21.78
2019-01-11T06:32:43.992Z,21.75
2019-01-11T06:33:15.594Z,21.74
2019-01-11T06:33:47.225Z,21.73
2019-01-11T06:34:18.822Z,21.73
2019-01-11T06:34:50.425Z,21.72
2019-01-11T06:35:22.027Z,21.71
2019-01-11T06:35:53.621Z,21.68
2019-01-11T06:36:25.213Z,21.67
2019-01-11T06:36:57.003Z,21.64
2019-01-11T06:37:28.598Z,21.65
2019-01-11T06:38:00.221Z,21.62
2019-01-11T06:38:31.812Z,21.61
2019-01-11T06:39:03.416Z,21.58
2019-01-11T06:39:35.011Z,21.54
2019-01-11T06:40:06.616Z,21.52
2019-01-11T06:40:38.209Z,21.49
2019-01-11T06:41:09.819Z,21.48
2019-01-11T06:41:41.428Z,21.46
2019-01-11T06:42:13.026Z,21.44
2019-01-11T06:42:44.621Z,21.42
2019-01-11T06:43:16.242Z,21.40
2019-01-11T06:43:47.848Z,21.40
2019-01-11T06:44:19.456Z,21.38
2019-01-11T06:44:51.050Z,21.35
2019-01-11T06:45:22.651Z,21.35
2019-01-11T06:45:54.259Z,21.33
2019-01-11T06:46:25.872Z,21.32
2019-01-11T06:46:57.479Z,21.31
2019-01-11T06:47:29.083Z,21.32
2019-01-11T06:48:00.706Z,21.31